Time;durP1;ratioP1;P1;durP2;ratioP2;P2;SDS_P1;SDS_P2;PMS_P1;PMS_P2;Temp;Humidity;BMP_temperature;BMP_pressure;BME280_temperature;BME280_humidity;BME280_pressure;Samples;Min_cycle;Max_cycle;Signal;HPM_P1;HPM_P2
2021/04/28 00:00:00;;;;;;;9.90;2.35;;;8.10;99.90;;;;;;1855216;76;21569;-75
2021/04/28 00:02:27;;;;;;;3.87;2.40;;;8.10;99.90;;;;;;1855215;77;21466;-75
2021/04/28 00:04:53;;;;;;;4.35;2.20;;;8.00;99.90;;;;;;1855346;77;21042;-75
2021/04/28 00:07:19;;;;;;;2.02;1.72;;;8.00;99.90;;;;;;1855171;77;21140;-75
2021/04/28 00:09:45;;;;;;;11.68;2.42;;;8.00;99.90;;;;;;1854351;76;21063;-75
2021/04/28 00:12:11;;;;;;;4.70;2.62;;;7.90;99.90;;;;;;1854012;76;21148;-75
2021/04/28 00:14:37;;;;;;;8.03;2.50;;;7.90;99.90;;;;;;1855262;77;21203;-75
2021/04/28 00:17:03;;;;;;;4.15;2.35;;;7.90;99.90;;;;;;1855264;77;21074;-75
2021/04/28 00:19:30;;;;;;;5.58;2.60;;;7.80;99.90;;;;;;1855128;77;21152;-75
2021/04/28 00:21:56;;;;;;;7.33;2.27;;;7.80;99.90;;;;;;1855139;76;21061;-74
2021/04/28 00:24:22;;;;;;;3.30;2.20;;;7.80;99.90;;;;;;1855177;76;21094;-75
2021/04/28 00:26:48;;;;;;;2.45;2.12;;;7.80;99.90;;;;;;1855055;76;21474;-76
2021/04/28 00:29:14;;;;;;;3.58;1.98;;;7.70;99.90;;;;;;1855172;77;21479;-75
2021/04/28 00:31:40;;;;;;;4.05;2.15;;;7.70;99.90;;;;;;1855045;77;21502;-75
2021/04/28 00:34:06;;;;;;;6.53;2.42;;;7.70;99.90;;;;;;1855247;77;21149;-75
2021/04/28 00:36:32;;;;;;;3.00;2.33;;;7.70;99.90;;;;;;1855110;77;21059;-75
2021/04/28 00:38:58;;;;;;;4.72;2.25;;;7.70;99.90;;;;;;1855191;77;21132;-76
2021/04/28 00:41:25;;;;;;;4.10;2.27;;;7.60;99.90;;;;;;1855139;77;21135;-75
2021/04/28 00:43:51;;;;;;;2.72;1.95;;;7.60;99.90;;;;;;1855091;77;21144;-75
2021/04/28 00:46:17;;;;;;;4.42;2.52;;;7.60;99.90;;;;;;1855095;77;21143;-75
2021/04/28 00:48:43;;;;;;;7.85;2.27;;;7.50;99.90;;;;;;1855396;77;21059;-76
2021/04/28 00:51:11;;;;;;;3.60;2.08;;;7.50;99.90;;;;;;1855759;76;21051;-75
2021/04/28 00:53:37;;;;;;;4.42;2.10;;;7.50;99.90;;;;;;1855694;77;21051;-74
2021/04/28 00:56:03;;;;;;;3.55;2.55;;;7.40;99.90;;;;;;1855786;77;21046;-75
2021/04/28 00:58:29;;;;;;;3.08;2.10;;;7.40;99.90;;;;;;1855801;76;21078;-74
2021/04/28 01:00:55;;;;;;;9.23;2.40;;;7.30;99.90;;;;;;1855817;76;21074;-74
2021/04/28 01:03:21;;;;;;;19.00;2.27;;;7.30;99.90;;;;;;1855787;77;21047;-75
2021/04/28 01:05:47;;;;;;;3.25;2.20;;;7.10;99.90;;;;;;1855855;77;21091;-74
2021/04/28 01:08:14;;;;;;;2.33;2.02;;;7.20;99.90;;;;;;1855870;77;21141;-74
2021/04/28 01:10:40;;;;;;;3.98;2.27;;;7.20;99.90;;;;;;1855701;77;21078;-75
2021/04/28 01:13:06;;;;;;;3.35;2.58;;;7.10;99.90;;;;;;1855817;77;21082;-75
2021/04/28 01:15:32;;;;;;;3.35;2.35;;;7.10;99.90;;;;;;1855809;77;21140;-75
2021/04/28 01:17:58;;;;;;;3.08;2.05;;;6.90;99.90;;;;;;1855720;77;21078;-76
2021/04/28 01:20:24;;;;;;;4.72;2.27;;;7.00;99.90;;;;;;1855801;77;21083;-75
2021/04/28 01:22:50;;;;;;;3.67;2.20;;;6.90;99.90;;;;;;1855752;76;21051;-75
2021/04/28 01:25:16;;;;;;;3.42;2.22;;;7.00;99.90;;;;;;1855730;77;21082;-75
2021/04/28 01:27:43;;;;;;;7.12;2.50;;;7.00;99.90;;;;;;1855782;77;21136;-75
2021/04/28 01:30:09;;;;;;;4.00;2.05;;;6.90;99.90;;;;;;1855811;77;21070;-75
2021/04/28 01:32:35;;;;;;;6.78;2.60;;;6.90;99.90;;;;;;1855721;77;21075;-74
2021/04/28 01:35:01;;;;;;;3.55;2.50;;;6.90;99.90;;;;;;1855860;76;21502;-75
2021/04/28 01:37:27;;;;;;;3.47;2.70;;;6.90;99.90;;;;;;1855706;77;21585;-75
2021/04/28 01:39:53;;;;;;;4.10;2.45;;;6.90;99.90;;;;;;1855703;77;21068;-75
2021/04/28 01:42:20;;;;;;;3.02;2.30;;;6.90;99.90;;;;;;1855685;77;21074;-75
2021/04/28 01:44:46;;;;;;;3.83;2.47;;;6.80;99.90;;;;;;1855771;77;21078;-75
2021/04/28 01:47:12;;;;;;;4.78;2.60;;;6.70;99.90;;;;;;1855800;77;21078;-75
2021/04/28 01:49:38;;;;;;;6.15;2.22;;;6.70;99.90;;;;;;1855650;77;21122;-75
2021/04/28 01:52:04;;;;;;;5.22;2.17;;;6.60;99.90;;;;;;1855863;77;21082;-75
2021/04/28 01:54:30;;;;;;;2.75;2.17;;;6.60;99.90;;;;;;1855586;77;21087;-74
2021/04/28 01:56:56;;;;;;;4.42;2.45;;;6.70;99.90;;;;;;1855782;76;21051;-74
2021/04/28 01:59:22;;;;;;;4.12;2.40;;;6.60;99.90;;;;;;1855704;77;21475;-75
2021/04/28 02:01:49;;;;;;;3.90;2.42;;;6.60;99.90;;;;;;1855782;77;21498;-75
2021/04/28 02:04:15;;;;;;;4.78;2.67;;;6.60;99.90;;;;;;1855664;77;21510;-75
2021/04/28 02:06:41;;;;;;;8.38;2.80;;;6.50;99.90;;;;;;1855660;76;21083;-75
2021/04/28 02:09:07;;;;;;;6.12;2.20;;;6.50;99.90;;;;;;1855656;77;21082;-75
2021/04/28 02:11:33;;;;;;;10.43;2.62;;;6.50;99.90;;;;;;1855677;76;21043;-75
2021/04/28 02:13:59;;;;;;;4.45;2.33;;;6.40;99.90;;;;;;1855776;77;21077;-75
2021/04/28 02:16:26;;;;;;;2.58;2.15;;;6.40;99.90;;;;;;1843762;77;21132;-75
2021/04/28 02:18:52;;;;;;;2.92;2.08;;;6.40;99.90;;;;;;1855677;77;21090;-75
2021/04/28 02:21:18;;;;;;;4.08;2.47;;;6.40;99.90;;;;;;1855669;77;21199;-75
2021/04/28 02:23:44;;;;;;;5.37;2.60;;;6.40;99.90;;;;;;1855772;77;21474;-75
2021/04/28 02:26:10;;;;;;;5.12;2.15;;;6.40;99.90;;;;;;1855745;76;21074;-75
2021/04/28 02:28:36;;;;;;;4.20;2.50;;;6.40;99.90;;;;;;1856411;77;21177;-75
2021/04/28 02:31:02;;;;;;;5.12;2.58;;;6.30;99.90;;;;;;1855570;77;21047;-75
2021/04/28 02:33:29;;;;;;;4.33;2.83;;;6.30;99.90;;;;;;1855570;76;21156;-75
2021/04/28 02:35:55;;;;;;;14.93;2.40;;;6.30;99.90;;;;;;1855683;76;21082;-75
2021/04/28 02:38:21;;;;;;;8.98;2.90;;;6.30;99.90;;;;;;1855662;76;21075;-75
2021/04/28 02:40:47;;;;;;;5.80;2.85;;;6.30;99.90;;;;;;1855663;77;21153;-75
2021/04/28 02:43:13;;;;;;;3.45;2.47;;;6.20;99.90;;;;;;1855723;77;21051;-76
2021/04/28 02:45:39;;;;;;;5.12;2.70;;;6.20;99.90;;;;;;1851547;76;21176;-76
2021/04/28 02:48:05;;;;;;;5.17;2.92;;;6.10;99.90;;;;;;1843634;77;21052;-75
2021/04/28 02:50:32;;;;;;;6.65;2.55;;;6.10;99.90;;;;;;1843470;78;21091;-75
2021/04/28 02:52:58;;;;;;;6.80;3.20;;;6.10;99.90;;;;;;1844193;77;21201;-76
2021/04/28 02:55:24;;;;;;;9.65;3.27;;;6.00;99.90;;;;;;1855678;77;21066;-75
2021/04/28 02:57:50;;;;;;;9.85;3.37;;;5.90;99.90;;;;;;1855729;76;21082;-76
2021/04/28 03:00:16;;;;;;;3.55;2.55;;;6.00;99.90;;;;;;1855768;77;21051;-76
2021/04/28 03:02:44;;;;;;;3.00;2.42;;;6.00;99.90;;;;;;1855739;77;21086;-75
2021/04/28 03:05:10;;;;;;;5.58;2.58;;;6.10;99.90;;;;;;1855501;76;21082;-74
2021/04/28 03:07:36;;;;;;;3.52;2.58;;;6.10;99.90;;;;;;1855841;76;21078;-76
2021/04/28 03:10:02;;;;;;;6.42;2.22;;;6.10;99.90;;;;;;1855569;77;21152;-76
2021/04/28 03:12:28;;;;;;;4.72;2.83;;;6.10;99.90;;;;;;1855719;77;21133;-76
2021/04/28 03:14:54;;;;;;;5.67;2.95;;;6.00;99.90;;;;;;1855669;77;21092;-75
2021/04/28 03:17:23;;;;;;;5.78;2.87;;;6.00;99.90;;;;;;1855739;77;21047;-75
2021/04/28 03:19:48;;;;;;;6.20;2.70;;;6.00;99.90;;;;;;1855578;76;21536;-75
2021/04/28 03:22:16;;;;;;;3.50;2.80;;;6.00;99.90;;;;;;1855613;77;21498;-76
2021/04/28 03:24:42;;;;;;;4.37;2.60;;;6.00;99.90;;;;;;1855582;77;21145;-76
2021/04/28 03:27:08;;;;;;;3.70;2.55;;;5.90;99.90;;;;;;1855786;77;21098;-76
2021/04/28 03:29:34;;;;;;;3.90;2.47;;;5.90;99.90;;;;;;1855508;77;21083;-76
2021/04/28 03:32:00;;;;;;;4.30;2.60;;;5.90;99.90;;;;;;1855695;77;21069;-76
2021/04/28 03:34:26;;;;;;;8.83;3.75;;;5.80;99.90;;;;;;1855671;76;21078;-75
2021/04/28 03:36:53;;;;;;;3.37;2.87;;;5.70;99.90;;;;;;1855683;77;21144;-75
2021/04/28 03:39:19;;;;;;;2.65;2.40;;;5.70;99.90;;;;;;1855541;76;21192;-76
2021/04/28 03:41:45;;;;;;;4.47;3.12;;;5.70;99.90;;;;;;1855628;77;21079;-76
2021/04/28 03:44:11;;;;;;;7.65;3.40;;;5.70;99.90;;;;;;1855632;77;21083;-76
2021/04/28 03:46:37;;;;;;;6.87;3.15;;;5.70;99.90;;;;;;1855616;76;21047;-76
2021/04/28 03:49:03;;;;;;;4.47;2.77;;;5.70;99.90;;;;;;1855708;77;21149;-76
2021/04/28 03:51:29;;;;;;;10.43;3.08;;;5.60;99.90;;;;;;1855570;77;21145;-76
2021/04/28 03:53:55;;;;;;;6.90;3.60;;;5.60;99.90;;;;;;1855786;77;21083;-76
2021/04/28 03:56:22;;;;;;;6.58;2.87;;;5.70;99.90;;;;;;1855676;77;21152;-75
2021/04/28 03:58:48;;;;;;;18.35;3.47;;;5.70;99.90;;;;;;1855748;77;21545;-76
2021/04/28 04:01:15;;;;;;;5.45;3.40;;;5.60;99.90;;;;;;1855656;76;21427;-75
2021/04/28 04:03:41;;;;;;;8.00;3.33;;;5.60;99.90;;;;;;1855919;76;21054;-74
2021/04/28 04:06:07;;;;;;;6.75;3.45;;;5.60;99.90;;;;;;1855637;77;21078;-76
2021/04/28 04:08:33;;;;;;;3.83;3.25;;;5.50;99.90;;;;;;1855806;77;21076;-76
2021/04/28 04:11:00;;;;;;;6.05;3.37;;;5.50;99.90;;;;;;1855642;77;21086;-76
2021/04/28 04:13:26;;;;;;;7.62;3.37;;;5.50;99.90;;;;;;1855759;77;21548;-76
2021/04/28 04:15:52;;;;;;;6.47;3.20;;;5.40;99.90;;;;;;1855785;77;21506;-76
2021/04/28 04:18:18;;;;;;;4.37;3.30;;;5.50;99.90;;;;;;1855814;77;21494;-76
2021/04/28 04:20:46;;;;;;;5.20;3.60;;;5.50;99.90;;;;;;1855704;77;21019;-78
2021/04/28 04:23:12;;;;;;;7.12;3.52;;;5.50;99.90;;;;;;1855715;76;21085;-74
2021/04/28 04:25:38;;;;;;;6.10;3.27;;;5.50;99.90;;;;;;1855698;77;21502;-76
2021/04/28 04:28:04;;;;;;;12.40;3.20;;;5.50;99.90;;;;;;1855663;77;21486;-76
2021/04/28 04:30:30;;;;;;;6.10;3.45;;;5.50;99.90;;;;;;1855765;77;21510;-76
2021/04/28 04:32:56;;;;;;;5.40;3.02;;;5.60;99.90;;;;;;1855858;77;21079;-76
2021/04/28 04:35:22;;;;;;;8.13;3.77;;;5.60;99.90;;;;;;1855715;77;21078;-75
2021/04/28 04:37:49;;;;;;;6.45;3.40;;;5.70;99.90;;;;;;1855690;77;21129;-75
2021/04/28 04:40:15;;;;;;;7.83;3.42;;;5.70;99.90;;;;;;1855701;77;21051;-75
2021/04/28 04:42:41;;;;;;;4.75;3.25;;;5.70;99.90;;;;;;1855778;77;21074;-76
2021/04/28 04:45:08;;;;;;;6.05;3.17;;;5.70;99.90;;;;;;1855621;77;21160;-75
2021/04/28 04:47:35;;;;;;;4.10;2.90;;;5.70;99.90;;;;;;1855749;76;21152;-75
2021/04/28 04:50:01;;;;;;;4.97;3.45;;;5.70;99.90;;;;;;1855809;77;21148;-73
2021/04/28 04:52:27;;;;;;;6.37;3.40;;;5.70;99.90;;;;;;1855597;77;21047;-73
2021/04/28 04:54:53;;;;;;;6.03;3.20;;;5.80;99.90;;;;;;1855779;77;21136;-73
2021/04/28 04:57:19;;;;;;;9.68;3.65;;;5.80;99.90;;;;;;1855647;77;21502;-73
2021/04/28 04:59:45;;;;;;;8.38;3.62;;;5.90;99.90;;;;;;1855245;76;21588;-73
2021/04/28 05:02:11;;;;;;;10.38;3.02;;;5.90;99.90;;;;;;1855314;77;21502;-74
2021/04/28 05:04:37;;;;;;;5.15;3.47;;;6.00;99.90;;;;;;1855760;76;21078;-74
2021/04/28 05:07:03;;;;;;;10.05;4.42;;;5.90;99.90;;;;;;1855719;77;21141;-74
2021/04/28 05:09:30;;;;;;;9.98;3.83;;;5.70;99.90;;;;;;1855682;77;21051;-74
2021/04/28 05:11:56;;;;;;;5.47;3.42;;;5.70;99.90;;;;;;1855750;77;21071;-74
2021/04/28 05:14:22;;;;;;;8.70;4.53;;;5.80;99.90;;;;;;1859068;76;21087;-74
2021/04/28 05:16:48;;;;;;;7.37;3.85;;;5.90;99.90;;;;;;1843397;77;21118;-75
2021/04/28 05:19:14;;;;;;;5.85;3.67;;;5.90;99.90;;;;;;1854594;77;21070;-75
2021/04/28 05:21:40;;;;;;;5.62;3.30;;;6.00;99.90;;;;;;1855208;76;21090;-74
2021/04/28 05:24:07;;;;;;;12.53;4.22;;;6.10;99.90;;;;;;1855702;77;21074;-73
2021/04/28 05:26:33;;;;;;;6.80;3.87;;;6.10;99.90;;;;;;1854484;76;21095;-76
2021/04/28 05:28:59;;;;;;;6.58;3.58;;;6.10;99.90;;;;;;1843485;77;21196;-75
2021/04/28 05:31:25;;;;;;;15.75;4.25;;;6.20;99.90;;;;;;1843541;78;21584;-75
2021/04/28 05:33:51;;;;;;;8.05;3.80;;;6.30;99.90;;;;;;1843541;78;21075;-74
2021/04/28 05:36:17;;;;;;;13.35;4.22;;;6.40;99.90;;;;;;1843628;78;21079;-75
2021/04/28 05:38:43;;;;;;;9.18;4.08;;;6.50;99.90;;;;;;1843630;78;21055;-75
2021/04/28 05:41:09;;;;;;;7.53;3.87;;;6.60;99.90;;;;;;1843586;78;21070;-75
2021/04/28 05:43:36;;;;;;;6.87;3.85;;;6.70;99.90;;;;;;1843635;78;21078;-75
2021/04/28 05:46:02;;;;;;;5.10;3.65;;;6.80;99.90;;;;;;1843551;78;21078;-73
2021/04/28 05:48:28;;;;;;;4.60;3.20;;;6.90;99.90;;;;;;1843593;78;21169;-75
2021/04/28 05:50:55;;;;;;;13.60;4.10;;;7.00;99.90;;;;;;1843465;78;21164;-75
2021/04/28 05:53:21;;;;;;;8.18;4.15;;;7.10;99.90;;;;;;1843524;78;21099;-75
2021/04/28 05:55:47;;;;;;;10.82;4.17;;;7.20;99.90;;;;;;1843715;78;21145;-75
2021/04/28 05:58:16;;;;;;;4.60;3.60;;;7.30;99.90;;;;;;1843408;78;21051;-74
2021/04/28 06:00:41;;;;;;;6.37;3.52;;;7.40;99.90;;;;;;1842974;77;21112;-74
2021/04/28 06:03:07;;;;;;;10.38;4.17;;;7.70;99.90;;;;;;1843588;78;21079;-73
2021/04/28 06:05:33;;;;;;;11.18;3.90;;;7.70;99.90;;;;;;1831730;78;21043;-74
2021/04/28 06:07:59;;;;;;;13.48;3.75;;;7.90;99.90;;;;;;1843520;78;21204;-73
2021/04/28 06:10:26;;;;;;;11.48;3.83;;;8.00;99.90;;;;;;1843487;78;21083;-74
2021/04/28 06:12:52;;;;;;;11.57;4.40;;;8.10;99.90;;;;;;1843597;77;21080;-74
2021/04/28 06:15:18;;;;;;;9.28;4.15;;;8.30;99.90;;;;;;1843745;78;21056;-74
2021/04/28 06:17:44;;;;;;;12.03;3.75;;;8.50;99.90;;;;;;1843509;77;21101;-74
2021/04/28 06:20:10;;;;;;;6.25;4.37;;;8.70;99.90;;;;;;1843475;78;21059;-74
2021/04/28 06:22:36;;;;;;;11.73;4.20;;;8.80;99.90;;;;;;1843563;78;21157;-74
2021/04/28 06:25:02;;;;;;;9.20;3.95;;;8.90;99.90;;;;;;1843486;78;21075;-74
2021/04/28 06:27:29;;;;;;;9.20;4.72;;;9.00;99.90;;;;;;1843551;78;21117;-74
2021/04/28 06:29:55;;;;;;;12.23;4.37;;;9.10;99.90;;;;;;1843500;78;21074;-74
2021/04/28 06:32:21;;;;;;;8.83;4.62;;;9.20;99.90;;;;;;1843631;78;21047;-74
2021/04/28 06:34:48;;;;;;;7.83;4.03;;;9.40;99.90;;;;;;1843619;78;21141;-74
2021/04/28 06:37:16;;;;;;;7.47;4.05;;;9.60;99.90;;;;;;1843582;77;21087;-76
2021/04/28 06:39:42;;;;;;;8.43;3.92;;;9.90;99.90;;;;;;1843600;77;21091;-76
2021/04/28 06:42:08;;;;;;;8.33;3.92;;;10.00;99.90;;;;;;1843466;78;21141;-76
2021/04/28 06:44:35;;;;;;;12.03;4.70;;;10.00;99.90;;;;;;1843425;77;21149;-77
2021/04/28 06:47:01;;;;;;;8.45;4.53;;;10.00;99.90;;;;;;1843380;77;21156;-76
2021/04/28 06:49:27;;;;;;;7.15;4.17;;;10.30;99.90;;;;;;1843533;78;21079;-76
2021/04/28 06:51:53;;;;;;;15.43;4.70;;;10.40;99.90;;;;;;1843500;78;21086;-77
2021/04/28 06:54:19;;;;;;;5.78;4.05;;;10.40;99.90;;;;;;1843522;78;21122;-77
2021/04/28 06:56:46;;;;;;;11.60;4.37;;;10.50;99.90;;;;;;1843536;78;21149;-77
2021/04/28 06:59:15;;;;;;;11.65;4.97;;;10.60;99.90;;;;;;1843454;78;21098;-77
2021/04/28 07:01:41;;;;;;;7.20;4.62;;;10.60;99.90;;;;;;1843336;77;21155;-77
2021/04/28 07:04:09;;;;;;;14.28;4.87;;;10.70;99.90;;;;;;1843246;78;21515;-76
2021/04/28 07:06:35;;;;;;;7.95;4.60;;;10.90;99.90;;;;;;1843089;77;21075;-76
2021/04/28 07:09:01;;;;;;;7.37;4.47;;;11.10;99.90;;;;;;1842991;78;21153;-76
2021/04/28 07:11:27;;;;;;;14.98;4.58;;;11.30;99.90;;;;;;1843127;78;21514;-76
2021/04/28 07:13:53;;;;;;;7.05;4.25;;;11.50;99.90;;;;;;1842872;78;21535;-76
2021/04/28 07:16:19;;;;;;;8.00;4.17;;;11.70;99.90;;;;;;1843069;78;21552;-77
2021/04/28 07:18:47;;;;;;;12.90;5.40;;;11.80;99.90;;;;;;1848289;76;21062;-77
2021/04/28 07:21:13;;;;;;;11.50;4.58;;;12.10;99.90;;;;;;1855178;77;21147;-77
2021/04/28 07:23:41;;;;;;;11.97;5.25;;;12.20;99.90;;;;;;1855429;77;21136;-77
2021/04/28 07:26:09;;;;;;;11.15;3.80;;;12.40;99.90;;;;;;1855330;76;21074;-77
2021/04/28 07:28:35;;;;;;;10.95;4.62;;;12.60;99.90;;;;;;1855398;77;21082;-77
2021/04/28 07:31:01;;;;;;;13.55;4.85;;;12.50;99.90;;;;;;1853939;77;21147;-81
2021/04/28 07:33:27;;;;;;;7.42;4.20;;;12.70;99.90;;;;;;1845413;78;21079;-80
2021/04/28 07:35:53;;;;;;;6.25;3.98;;;13.20;99.90;;;;;;1843870;78;21082;-77
2021/04/28 07:38:19;;;;;;;12.80;4.37;;;13.60;99.90;;;;;;1843234;78;21188;-75
2021/04/28 07:40:45;;;;;;;13.25;4.08;;;14.00;99.90;;;;;;1843284;78;21145;-76
2021/04/28 07:43:11;;;;;;;7.33;4.03;;;13.90;99.90;;;;;;1843264;78;21087;-77
2021/04/28 07:45:38;;;;;;;11.03;4.17;;;14.30;99.90;;;;;;1852046;77;21083;-77
2021/04/28 07:48:07;;;;;;;8.98;4.05;;;14.60;99.90;;;;;;1855082;76;21238;-79
2021/04/28 07:50:32;;;;;;;8.93;3.70;;;14.50;99.90;;;;;;1855188;77;21149;-77
2021/04/28 07:52:58;;;;;;;8.50;3.90;;;14.70;99.90;;;;;;1852865;77;21242;-77
2021/04/28 07:55:24;;;;;;;9.98;4.28;;;15.30;99.90;;;;;;1855222;77;21148;-76
2021/04/28 07:57:50;;;;;;;7.80;3.83;;;15.50;99.90;;;;;;1853185;76;21199;-76
2021/04/28 08:00:16;;;;;;;13.75;3.83;;;15.50;99.90;;;;;;1854882;76;21086;-75
2021/04/28 08:02:43;;;;;;;5.90;3.55;;;16.00;99.90;;;;;;1855483;77;21152;-77
2021/04/28 08:05:09;;;;;;;8.60;4.33;;;16.30;99.90;;;;;;1855439;76;21102;-75
2021/04/28 08:07:36;;;;;;;10.78;3.87;;;16.70;99.90;;;;;;1855306;77;21155;-73
2021/04/28 08:10:02;;;;;;;9.83;4.05;;;16.40;99.90;;;;;;1855268;77;21090;-74
2021/04/28 08:12:28;;;;;;;6.62;3.62;;;16.30;99.90;;;;;;1855231;77;21090;-74
2021/04/28 08:14:54;;;;;;;7.33;3.27;;;16.50;99.90;;;;;;1855090;77;21515;-80
2021/04/28 08:17:20;;;;;;;7.33;3.52;;;17.00;99.90;;;;;;1855327;77;21077;-72
2021/04/28 08:19:46;;;;;;;11.97;3.45;;;17.60;99.60;;;;;;1855182;76;21140;-73
2021/04/28 08:22:12;;;;;;;13.40;4.42;;;17.50;97.70;;;;;;1855324;77;21090;-75
2021/04/28 08:24:39;;;;;;;7.15;3.87;;;17.00;97.80;;;;;;1855450;76;21083;-75
2021/04/28 08:27:07;;;;;;;13.48;4.45;;;16.70;99.80;;;;;;1855483;76;21062;-74
2021/04/28 08:29:33;;;;;;;8.65;3.90;;;16.90;99.10;;;;;;1855502;77;21111;-74
2021/04/28 08:31:59;;;;;;;7.55;4.00;;;17.00;98.90;;;;;;1855519;77;21078;-75
2021/04/28 08:34:25;;;;;;;6.40;3.95;;;17.40;97.70;;;;;;1855598;77;21233;-75
2021/04/28 08:36:51;;;;;;;10.58;3.98;;;17.70;98.00;;;;;;1857284;77;21113;-74
2021/04/28 08:39:17;;;;;;;7.90;4.17;;;17.60;96.90;;;;;;1858885;76;21092;-77
2021/04/28 08:41:43;;;;;;;6.08;3.40;;;17.60;97.80;;;;;;1858801;76;21026;-72
2021/04/28 08:44:09;;;;;;;11.88;4.35;;;18.20;96.10;;;;;;1858673;77;21168;-75
2021/04/28 08:46:36;;;;;;;13.83;4.22;;;17.90;95.50;;;;;;1856358;76;21124;-72
2021/04/28 08:49:02;;;;;;;14.23;4.50;;;17.90;95.90;;;;;;1855265;77;21051;-72
2021/04/28 08:51:28;;;;;;;10.00;3.95;;;18.20;95.70;;;;;;1855221;77;21144;-75
2021/04/28 08:53:54;;;;;;;7.05;4.10;;;19.00;95.80;;;;;;1855188;76;21090;-73
2021/04/28 08:56:21;;;;;;;7.87;3.83;;;19.30;93.50;;;;;;1855205;76;21082;-73
2021/04/28 08:58:50;;;;;;;8.13;4.17;;;18.40;94.10;;;;;;1855242;77;21502;-73
2021/04/28 09:01:15;;;;;;;11.85;4.58;;;18.70;94.60;;;;;;1855207;76;21054;-73
2021/04/28 09:03:42;;;;;;;8.63;4.00;;;18.90;94.00;;;;;;1855344;77;21079;-72
2021/04/28 09:06:08;;;;;;;8.13;4.40;;;19.30;94.50;;;;;;1855325;76;21047;-72
2021/04/28 09:08:34;;;;;;;10.35;4.92;;;19.90;92.60;;;;;;1855279;77;21082;-77
2021/04/28 09:11:02;;;;;;;8.58;3.92;;;20.00;92.30;;;;;;1855312;77;21117;-78
2021/04/28 09:13:28;;;;;;;7.28;3.95;;;20.50;91.70;;;;;;1855180;76;21107;-74
2021/04/28 09:15:54;;;;;;;14.80;4.20;;;20.40;90.70;;;;;;1855191;76;21059;-75
2021/04/28 09:18:20;;;;;;;6.90;3.70;;;20.90;90.30;;;;;;1855193;77;21168;-73
2021/04/28 09:20:49;;;;;;;12.73;4.37;;;20.60;89.60;;;;;;1855219;77;21510;-75
2021/04/28 09:23:15;;;;;;;11.88;3.75;;;19.70;90.50;;;;;;1855145;76;21079;-75
2021/04/28 09:25:44;;;;;;;8.03;3.98;;;19.50;91.70;;;;;;1855289;76;21494;-74
2021/04/28 09:28:10;;;;;;;8.35;4.25;;;20.10;91.10;;;;;;1855224;77;21129;-75
2021/04/28 09:30:36;;;;;;;6.40;3.75;;;20.30;90.30;;;;;;1855218;77;21136;-75
2021/04/28 09:33:02;;;;;;;9.85;4.40;;;20.20;90.60;;;;;;1855114;77;21074;-74
2021/04/28 09:35:29;;;;;;;9.18;4.40;;;20.40;88.20;;;;;;1855241;76;21147;-75
2021/04/28 09:37:55;;;;;;;8.63;4.30;;;20.00;89.10;;;;;;1855210;77;21078;-73
2021/04/28 09:40:21;;;;;;;8.75;3.95;;;20.50;86.50;;;;;;1855345;77;21074;-74
2021/04/28 09:42:47;;;;;;;8.00;4.08;;;20.30;86.00;;;;;;1855300;77;21167;-74
2021/04/28 09:45:13;;;;;;;9.45;4.55;;;20.50;85.10;;;;;;1855156;76;21074;-75
2021/04/28 09:47:39;;;;;;;11.22;4.37;;;21.00;79.20;;;;;;1855384;77;21118;-75
2021/04/28 09:50:05;;;;;;;9.05;4.25;;;20.80;79.60;;;;;;1855030;77;21042;-74
2021/04/28 09:52:37;;;;;;;8.73;4.70;;;21.10;79.50;;;;;;1855293;77;21080;-75
2021/04/28 09:54:59;;;;;;;10.18;4.30;;;20.40;80.50;;;;;;1853561;77;21598;-79
2021/04/28 09:57:25;;;;;;;8.93;4.05;;;20.50;80.00;;;;;;1855259;77;21505;-72
2021/04/28 09:59:51;;;;;;;13.28;4.12;;;20.90;76.90;;;;;;1855289;76;21567;-77
2021/04/28 10:02:18;;;;;;;6.50;3.27;;;21.60;71.50;;;;;;1855447;77;21083;-73
2021/04/28 10:04:44;;;;;;;6.87;2.42;;;21.80;62.10;;;;;;1855185;76;21074;-74
2021/04/28 10:07:12;;;;;;;8.65;3.17;;;21.70;57.80;;;;;;1855719;76;21133;-74
2021/04/28 10:09:41;;;;;;;12.55;3.87;;;21.70;58.00;;;;;;1856268;76;21071;-74
2021/04/28 10:12:07;;;;;;;9.70;3.77;;;21.50;60.50;;;;;;1856714;76;21152;-74
2021/04/28 10:14:33;;;;;;;8.70;3.60;;;21.20;59.50;;;;;;1855197;77;21137;-74
2021/04/28 10:17:00;;;;;;;7.40;3.20;;;21.30;58.40;;;;;;1853202;77;21114;-74
2021/04/28 10:19:26;;;;;;;5.47;2.92;;;21.50;56.70;;;;;;1855314;77;21059;-74
2021/04/28 10:21:53;;;;;;;5.92;3.20;;;21.60;56.00;;;;;;1855087;76;21135;-72
2021/04/28 10:24:19;;;;;;;5.60;3.00;;;21.20;56.40;;;;;;1853448;76;21145;-72
2021/04/28 10:26:45;;;;;;;6.17;2.83;;;21.70;56.20;;;;;;1855158;77;21571;-73
2021/04/28 10:29:11;;;;;;;6.15;2.83;;;22.20;56.20;;;;;;1855156;76;21498;-74
2021/04/28 10:31:37;;;;;;;7.22;2.45;;;22.60;54.90;;;;;;1855551;76;21439;-77
2021/04/28 10:34:04;;;;;;;12.15;2.65;;;23.30;52.50;;;;;;1855112;77;21070;-76
2021/04/28 10:36:30;;;;;;;9.08;3.52;;;23.70;52.30;;;;;;1855144;77;21121;-74
2021/04/28 10:38:56;;;;;;;7.30;2.50;;;23.20;50.60;;;;;;1855290;77;21075;-74
2021/04/28 10:41:22;;;;;;;5.75;2.55;;;23.10;47.60;;;;;;1855371;77;21138;-74
2021/04/28 10:43:48;;;;;;;4.83;2.60;;;23.00;47.40;;;;;;1855225;77;21160;-73
2021/04/28 10:46:14;;;;;;;7.35;2.77;;;22.50;49.80;;;;;;1855343;77;21136;-73
2021/04/28 10:48:40;;;;;;;6.67;2.50;;;22.40;48.60;;;;;;1855254;77;21249;-78
2021/04/28 10:51:07;;;;;;;13.62;2.83;;;22.30;49.10;;;;;;1855212;77;21051;-77
2021/04/28 10:53:33;;;;;;;8.25;2.67;;;22.30;48.80;;;;;;1855220;76;21078;-77
2021/04/28 10:55:59;;;;;;;4.37;2.47;;;22.20;48.20;;;;;;1855102;77;21502;-78
2021/04/28 10:58:26;;;;;;;5.30;2.90;;;22.50;48.00;;;;;;1855062;77;21141;-76
2021/04/28 11:00:52;;;;;;;11.70;3.30;;;22.10;48.80;;;;;;1855063;77;21094;-77
2021/04/28 11:03:18;;;;;;;6.15;2.60;;;22.40;50.10;;;;;;1855167;77;21584;-77
2021/04/28 11:05:44;;;;;;;4.15;2.15;;;23.20;49.90;;;;;;1855094;77;21451;-77
2021/04/28 11:08:11;;;;;;;4.00;2.50;;;22.90;48.80;;;;;;1855024;77;21572;-77
2021/04/28 11:10:37;;;;;;;5.42;3.08;;;22.20;49.40;;;;;;1855066;77;21081;-78
2021/04/28 11:13:03;;;;;;;8.55;2.40;;;22.40;48.20;;;;;;1855102;77;21144;-77
2021/04/28 11:15:29;;;;;;;6.10;2.55;;;22.60;47.40;;;;;;1855173;77;21070;-76
2021/04/28 11:17:55;;;;;;;5.75;2.42;;;22.90;45.70;;;;;;1855177;77;21129;-76
2021/04/28 11:20:21;;;;;;;3.40;1.85;;;22.20;46.20;;;;;;1855017;76;21128;-78
2021/04/28 11:22:48;;;;;;;4.78;2.15;;;22.70;46.40;;;;;;1855068;77;21090;-78
2021/04/28 11:25:14;;;;;;;5.78;2.37;;;23.00;44.50;;;;;;1855124;77;21214;-78
2021/04/28 11:27:44;;;;;;;4.00;2.02;;;22.30;45.30;;;;;;1854941;77;21102;-77
2021/04/28 11:30:07;;;;;;;2.77;1.82;;;22.20;45.10;;;;;;1853742;75;21494;-77
2021/04/28 11:32:34;;;;;;;6.78;2.35;;;22.90;43.80;;;;;;1854946;77;21527;-78
2021/04/28 11:35:00;;;;;;;2.67;1.82;;;23.30;44.00;;;;;;1855019;76;21550;-77
2021/04/28 11:37:26;;;;;;;7.00;2.10;;;23.50;42.80;;;;;;1855115;76;21556;-79
2021/04/28 11:39:52;;;;;;;3.35;1.87;;;23.60;44.40;;;;;;1855106;77;21078;-78
2021/04/28 11:42:18;;;;;;;3.75;1.87;;;24.30;43.70;;;;;;1855122;77;21141;-78
2021/04/28 11:44:44;;;;;;;3.77;2.12;;;24.80;40.50;;;;;;1855047;77;21136;-79
2021/04/28 11:47:10;;;;;;;3.10;1.32;;;25.10;41.90;;;;;;1855157;77;21129;-79
2021/04/28 11:49:37;;;;;;;9.08;1.98;;;25.70;40.30;;;;;;1855216;77;21156;-79
2021/04/28 11:52:03;;;;;;;1.67;1.37;;;25.70;38.50;;;;;;1855240;77;21152;-79
2021/04/28 11:54:29;;;;;;;3.10;1.62;;;25.10;37.60;;;;;;1855126;77;21117;-77
2021/04/28 11:56:55;;;;;;;3.25;1.62;;;25.40;39.00;;;;;;1855093;77;21078;-79
2021/04/28 11:59:21;;;;;;;2.10;1.50;;;25.10;37.60;;;;;;1855125;77;21161;-79
2021/04/28 12:01:47;;;;;;;1.62;1.30;;;24.80;37.90;;;;;;1855241;77;21089;-79
2021/04/28 12:04:13;;;;;;;2.37;1.62;;;24.90;38.00;;;;;;1856557;77;21135;-76
2021/04/28 12:06:39;;;;;;;2.37;1.40;;;25.20;38.70;;;;;;1857209;77;21083;-76
2021/04/28 12:09:07;;;;;;;3.37;1.60;;;25.10;37.50;;;;;;1856293;77;21054;-77
2021/04/28 12:11:34;;;;;;;9.20;2.08;;;24.40;37.80;;;;;;1855792;77;21148;-78
2021/04/28 12:14:00;;;;;;;4.75;1.98;;;24.60;38.10;;;;;;1855185;77;21078;-78
2021/04/28 12:16:26;;;;;;;3.00;1.85;;;24.40;38.30;;;;;;1855064;77;21185;-79
2021/04/28 12:18:52;;;;;;;8.53;3.35;;;24.40;41.60;;;;;;1855183;77;21082;-79
2021/04/28 12:21:18;;;;;;;5.00;3.12;;;24.60;46.10;;;;;;1855254;77;21086;-79
2021/04/28 12:23:44;;;;;;;6.92;3.75;;;24.80;46.60;;;;;;1855177;77;21121;-81
2021/04/28 12:26:10;;;;;;;10.48;3.60;;;24.90;47.70;;;;;;1855259;77;21078;-80
2021/04/28 12:28:36;;;;;;;8.03;3.02;;;24.80;48.00;;;;;;1855071;77;21071;-76
2021/04/28 12:31:04;;;;;;;17.05;4.45;;;24.70;47.70;;;;;;1855339;76;21152;-78
2021/04/28 12:33:30;;;;;;;8.28;3.22;;;24.70;48.10;;;;;;1855186;77;21062;-81
2021/04/28 12:35:56;;;;;;;10.18;3.45;;;24.30;49.20;;;;;;1855263;77;21082;-80
2021/04/28 12:38:22;;;;;;;8.83;3.25;;;24.60;46.30;;;;;;1855206;77;21078;-79
2021/04/28 12:40:48;;;;;;;18.42;3.02;;;25.10;45.80;;;;;;1855189;77;21078;-80
2021/04/28 12:43:15;;;;;;;8.55;3.20;;;25.30;48.10;;;;;;1855136;77;21081;-79